Time;durP1;ratioP1;P1;durP2;ratioP2;P2;SDS_P1;SDS_P2;PMS_P1;PMS_P2;Temp;Humidity;BMP_temperature;BMP_pressure;BME280_temperature;BME280_humidity;BME280_pressure;Samples;Min_cycle;Max_cycle;Signal;HPM_P1;HPM_P2
2022/09/04 00:00:10;;;;;;;5.13;2.27;;;;;;;14.77;100.00;98650.13;4920387;28;20234;-52
2022/09/04 00:03:00;;;;;;;3.00;2.27;;;;;;;14.75;100.00;98660.00;4914163;28;20260;-55
2022/09/04 00:05:34;;;;;;;3.07;2.20;;;;;;;14.69;100.00;98656.25;4917347;28;20793;-52
2022/09/04 00:08:28;;;;;;;3.60;2.00;;;;;;;14.79;100.00;98656.03;4919024;28;20306;-52
2022/09/04 00:10:59;;;;;;;3.00;2.40;;;;;;;14.76;100.00;98664.25;4920579;28;20580;-55
2022/09/04 00:13:31;;;;;;;2.53;2.10;;;;;;;14.69;100.00;98664.13;4917312;28;20240;-52
2022/09/04 00:16:04;;;;;;;4.90;2.40;;;;;;;14.72;100.00;98660.34;4923325;28;20778;-53
2022/09/04 00:18:37;;;;;;;4.67;2.60;;;;;;;14.67;100.00;98658.19;4921222;28;20572;-52
2022/09/04 00:21:12;;;;;;;3.97;2.40;;;;;;;14.63;100.00;98667.41;4923656;28;20240;-52
2022/09/04 00:23:44;;;;;;;2.43;2.17;;;;;;;14.58;100.00;98665.34;4920807;28;20255;-52
2022/09/04 00:26:20;;;;;;;3.63;2.50;;;;;;;14.63;100.00;98674.50;4923459;28;20241;-52
2022/09/04 00:28:50;;;;;;;5.17;3.03;;;;;;;14.56;100.00;98664.69;4919631;28;20237;-54
2022/09/04 00:31:27;;;;;;;3.23;2.33;;;;;;;14.58;100.00;98669.75;4920991;28;20237;-53
2022/09/04 00:34:06;;;;;;;3.13;2.30;;;;;;;14.50;100.00;98667.19;4918421;28;20242;-54
2022/09/04 00:36:37;;;;;;;3.20;2.90;;;;;;;14.55;100.00;98668.31;4919078;29;20280;-54
2022/09/04 00:39:10;;;;;;;2.83;2.30;;;;;;;14.46;100.00;98675.41;4920813;28;20249;-52
2022/09/04 00:41:44;;;;;;;4.03;2.90;;;;;;;14.47;100.00;98674.44;4921715;28;20264;-52
2022/09/04 00:44:38;;;;;;;5.53;2.77;;;;;;;14.46;100.00;98675.41;4920359;29;20702;-52
2022/09/04 00:47:43;;;;;;;4.50;2.70;;;;;;;14.47;100.00;98681.50;4911326;29;20237;-52
2022/09/04 00:50:46;;;;;;;6.57;2.50;;;;;;;14.43;100.00;98677.59;4915990;29;20340;-56
2022/09/04 00:53:28;;;;;;;6.43;3.00;;;;;;;14.45;100.00;98689.53;4909357;29;20262;-52
2022/09/04 00:56:29;;;;;;;4.47;2.50;;;;;;;14.42;100.00;98683.84;4917899;28;20245;-53
2022/09/04 00:59:06;;;;;;;4.27;2.60;;;;;;;14.38;100.00;98687.78;4917778;28;20242;-53
2022/09/04 01:01:33;;;;;;;3.50;3.10;;;;;;;14.38;100.00;98690.41;4919395;29;20244;-53
2022/09/04 01:04:30;;;;;;;4.80;2.93;;;;;;;14.35;100.00;98694.19;4924501;28;20306;-52
2022/09/04 01:07:22;;;;;;;4.27;3.03;;;;;;;14.34;100.00;98694.38;4919950;28;20237;-55
2022/09/04 01:10:08;;;;;;;6.77;3.20;;;;;;;14.28;100.00;98701.97;4918422;29;20252;-55
2022/09/04 01:12:41;;;;;;;5.23;2.83;;;;;;;14.31;100.00;98700.78;4920139;28;20245;-55
2022/09/04 01:15:15;;;;;;;3.90;2.70;;;;;;;14.25;100.00;98702.31;4921605;29;20254;-53
2022/09/04 01:17:52;;;;;;;5.03;3.03;;;;;;;14.25;100.00;98698.88;4915728;28;20320;-54
2022/09/04 01:20:33;;;;;;;5.93;2.90;;;;;;;14.26;100.00;98709.19;4917687;29;20766;-53
2022/09/04 01:23:30;;;;;;;6.03;3.30;;;;;;;14.28;100.00;98711.66;4933234;28;20291;-55
2022/09/04 01:26:08;;;;;;;4.97;3.20;;;;;;;14.23;100.00;98706.13;4918255;28;20244;-55
2022/09/04 01:28:46;;;;;;;5.00;3.10;;;;;;;14.16;100.00;98701.56;4919028;29;20251;-54
2022/09/04 01:31:25;;;;;;;5.37;3.17;;;;;;;14.16;100.00;98709.44;4923871;28;20235;-57
2022/09/04 01:34:05;;;;;;;3.87;3.30;;;;;;;14.30;100.00;98709.69;4918452;28;20276;-52
2022/09/04 01:36:39;;;;;;;5.50;3.40;;;;;;;14.27;100.00;98707.41;4918128;28;20245;-54
2022/09/04 01:39:06;;;;;;;4.57;3.33;;;;;;;14.21;100.00;98708.09;4922483;29;20678;-54
2022/09/04 01:41:38;;;;;;;3.90;3.40;;;;;;;14.17;100.00;98707.59;4917613;28;20233;-55
2022/09/04 01:44:08;;;;;;;5.83;3.10;;;;;;;14.22;100.00;98705.28;4922697;28;20710;-54
2022/09/04 01:47:03;;;;;;;6.63;3.70;;;;;;;14.17;100.00;98713.69;4919762;28;20241;-52
2022/09/04 01:49:36;;;;;;;3.97;2.80;;;;;;;14.09;100.00;98716.34;4915315;28;20236;-55
2022/09/04 01:52:13;;;;;;;4.73;3.17;;;;;;;14.09;100.00;98712.88;4920676;28;20249;-54
2022/09/04 01:54:50;;;;;;;4.50;3.50;;;;;;;14.09;100.00;98718.97;4916944;28;20247;-54
2022/09/04 01:57:31;;;;;;;3.77;3.23;;;;;;;14.07;100.00;98718.31;4921429;28;20243;-54
2022/09/04 02:00:08;;;;;;;5.67;3.17;;;;;;;14.10;100.00;98711.91;4919936;28;20679;-54
2022/09/04 02:02:59;;;;;;;4.80;3.43;;;;;;;14.05;100.00;98717.69;4918775;29;20616;-54
2022/09/04 02:05:37;;;;;;;6.33;3.40;;;;;;;14.06;100.00;98721.94;4917264;29;20335;-56
2022/09/04 02:08:19;;;;;;;3.90;3.47;;;;;;;14.00;100.00;98714.75;4922682;28;20695;-55
2022/09/04 02:10:56;;;;;;;5.33;3.63;;;;;;;14.10;100.00;98712.72;4920783;28;20245;-53
2022/09/04 02:13:39;;;;;;;5.10;3.57;;;;;;;14.13;100.00;98722.91;4918511;29;20245;-54
2022/09/04 02:16:14;;;;;;;3.83;3.17;;;;;;;14.07;100.00;98712.25;4921658;28;20664;-52
2022/09/04 02:18:55;;;;;;;5.03;3.50;;;;;;;14.03;100.00;98720.47;4919205;28;20236;-53
2022/09/04 02:21:29;;;;;;;7.77;3.60;;;;;;;14.05;100.00;98727.34;4918447;29;20230;-55
2022/09/04 02:24:05;;;;;;;5.73;3.80;;;;;;;14.07;100.00;98725.38;4918569;28;20260;-53
2022/09/04 02:26:38;;;;;;;4.87;3.93;;;;;;;14.01;100.00;98722.44;4917385;28;20244;-53
2022/09/04 02:29:31;;;;;;;5.77;3.60;;;;;;;14.06;100.00;98721.09;4917230;29;20244;-53
2022/09/04 02:32:03;;;;;;;3.70;3.33;;;;;;;14.03;100.00;98719.66;4917651;28;20242;-52
2022/09/04 02:34:37;;;;;;;6.97;3.63;;;;;;;14.10;100.00;98717.16;4917042;28;20244;-52
2022/09/04 02:37:14;;;;;;;5.87;3.70;;;;;;;14.06;100.00;98721.09;4919603;28;20237;-54
2022/09/04 02:39:54;;;;;;;5.63;3.50;;;;;;;14.07;100.00;98723.56;4916863;28;20238;-53
2022/09/04 02:42:30;;;;;;;6.83;3.00;;;;;;;14.00;100.00;98726.03;4916416;28;20705;-53
2022/09/04 02:45:10;;;;;;;9.63;3.53;;;;;;;13.99;100.00;98727.03;4919072;28;20283;-55
2022/09/04 02:47:46;;;;;;;4.90;2.83;;;;;;;13.96;100.00;98727.38;4917065;29;20247;-55
2022/09/04 02:50:28;;;;;;;4.10;2.80;;;;;;;13.94;100.00;98731.97;4919430;29;20232;-52
2022/09/04 02:53:09;;;;;;;7.80;3.00;;;;;;;13.91;100.00;98734.13;4916738;28;20263;-53
2022/09/04 02:55:56;;;;;;;4.30;3.43;;;;;;;13.90;100.00;98735.94;4916915;28;20235;-54
2022/09/04 02:58:32;;;;;;;4.07;3.07;;;;;;;13.90;100.00;98738.53;4918502;28;20228;-53
2022/09/04 03:01:07;;;;;;;3.70;2.63;;;;;;;13.85;100.00;98743.47;4920399;28;20247;-54
2022/09/04 03:03:41;;;;;;;5.53;2.70;;;;;;;13.84;100.00;98741.84;4914717;29;20283;-54
2022/09/04 03:06:12;;;;;;;2.57;2.37;;;;;;;13.82;100.00;98738.56;4918333;29;20246;-54
2022/09/04 03:08:45;;;;;;;3.53;2.80;;;;;;;13.78;100.00;98740.72;4917765;28;21913;-53
2022/09/04 03:11:17;;;;;;;3.13;2.67;;;;;;;13.79;100.00;98736.28;4919144;28;20248;-55
2022/09/04 03:13:52;;;;;;;6.67;3.00;;;;;;;13.82;100.00;98742.03;4916026;29;20258;-53
2022/09/04 03:16:29;;;;;;;3.73;2.80;;;;;;;13.76;100.00;98740.09;4916061;28;20238;-53
2022/09/04 03:19:08;;;;;;;5.43;2.60;;;;;;;13.74;100.00;98744.69;4919340;28;20606;-53
2022/09/04 03:21:41;;;;;;;4.33;2.53;;;;;;;13.72;100.00;98749.28;4915772;29;20235;-52
2022/09/04 03:24:17;;;;;;;4.07;3.13;;;;;;;13.67;100.00;98752.41;4922338;29;20244;-52
2022/09/04 03:26:49;;;;;;;3.10;2.73;;;;;;;13.68;100.00;98746.19;4918383;28;20255;-54
2022/09/04 03:29:26;;;;;;;6.47;2.83;;;;;;;13.70;100.00;98740.75;4919411;29;20705;-54
2022/09/04 03:32:07;;;;;;;3.67;2.83;;;;;;;13.64;100.00;98744.03;4916159;29;20593;-55
2022/09/04 03:34:46;;;;;;;4.90;2.37;;;;;;;13.70;100.00;98753.88;4915701;28;20270;-53
2022/09/04 03:37:35;;;;;;;5.03;2.53;;;;;;;13.64;100.00;98751.91;4918180;29;20281;-55
2022/09/04 03:40:17;;;;;;;2.80;2.50;;;;;;;13.63;100.00;98745.03;4916012;29;20236;-55
2022/09/04 03:42:58;;;;;;;3.67;2.57;;;;;;;13.55;100.00;98746.69;4913879;29;20255;-53
2022/09/04 03:45:37;;;;;;;3.20;2.70;;;;;;;13.55;100.00;98749.31;4917281;28;20254;-53
2022/09/04 03:48:16;;;;;;;2.77;2.20;;;;;;;13.53;100.00;98756.53;4925414;29;20239;-53
2022/09/04 03:50:52;;;;;;;5.00;2.83;;;;;;;13.48;100.00;98753.56;4918497;29;20314;-55
2022/09/04 03:53:30;;;;;;;3.17;2.70;;;;;;;13.52;100.00;98759.31;4918793;28;20624;-62
2022/09/04 03:56:19;;;;;;;5.20;2.60;;;;;;;13.53;100.00;98753.09;4924299;29;20227;-53
2022/09/04 03:58:54;;;;;;;4.13;2.70;;;;;;;13.52;100.00;98764.56;4922804;28;20564;-53
2022/09/04 04:01:31;;;;;;;6.77;3.10;;;;;;;13.48;100.00;98769.31;4919834;28;20235;-52
2022/09/04 04:04:34;;;;;;;4.80;3.03;;;;;;;13.48;100.00;98758.81;4923924;28;20258;-52
2022/09/04 04:07:09;;;;;;;3.57;2.77;;;;;;;13.52;100.00;98767.19;4854475;29;20319;-53
2022/09/04 04:09:58;;;;;;;3.57;2.93;;;;;;;13.49;100.00;98765.72;4917816;29;20243;-52
2022/09/04 04:12:50;;;;;;;5.03;2.70;;;;;;;13.47;100.00;98770.28;4920389;28;20738;-54
2022/09/04 04:15:32;;;;;;;5.07;3.00;;;;;;;13.48;100.00;98773.75;4923673;28;20250;-52
2022/09/04 04:18:30;;;;;;;3.47;2.50;;;;;;;13.45;100.00;98777.50;4921511;29;20685;-53
2022/09/04 04:21:09;;;;;;;5.63;2.77;;;;;;;13.51;100.00;98776.03;4920635;28;20363;-53
2022/09/04 04:24:11;;;;;;;6.23;2.77;;;;;;;13.45;100.00;98779.31;4920328;28;20235;-55
2022/09/04 04:26:52;;;;;;;4.03;2.67;;;;;;;13.47;100.00;98785.22;4920152;28;20228;-52
2022/09/04 04:29:47;;;;;;;5.43;2.70;;;;;;;13.48;100.00;98786.88;4919355;28;20245;-54
2022/09/04 04:32:54;;;;;;;5.00;2.83;;;;;;;13.44;100.00;98788.97;4922946;29;20236;-56
2022/09/04 04:35:29;;;;;;;6.17;2.10;;;;;;;13.39;100.00;98788.63;4919713;28;20227;-53
2022/09/04 04:38:19;;;;;;;4.13;2.80;;;;;;;13.36;100.00;98791.56;4923087;28;20254;-52
2022/09/04 04:41:03;;;;;;;4.20;2.67;;;;;;;13.38;100.00;98800.09;4920327;29;20250;-53
2022/09/04 04:43:44;;;;;;;4.67;3.30;;;;;;;13.35;100.00;98801.25;4918123;28;20231;-52
2022/09/04 04:46:18;;;;;;;3.40;2.20;;;;;;;13.40;100.00;98803.38;4924109;28;20244;-53
2022/09/04 04:49:25;;;;;;;6.87;2.80;;;;;;;13.47;100.00;98803.59;4920515;28;20732;-52
2022/09/04 04:52:23;;;;;;;3.17;2.40;;;;;;;13.42;100.00;98823.25;4920910;29;20318;-53
2022/09/04 04:55:05;;;;;;;2.87;2.30;;;;;;;13.41;100.00;98820.75;4919287;29;20253;-53
2022/09/04 04:57:45;;;;;;;3.40;2.17;;;;;;;13.45;100.00;98827.34;4920195;28;20569;-52
2022/09/04 05:00:18;;;;;;;4.97;3.00;;;;;;;13.44;100.00;98820.44;4923486;29;20736;-55
2022/09/04 05:02:55;;;;;;;4.63;2.70;;;;;;;13.47;100.00;98824.56;4921023;28;20261;-52
2022/09/04 05:05:46;;;;;;;3.70;2.40;;;;;;;13.46;100.00;98830.78;4918023;28;20592;-54
2022/09/04 05:08:21;;;;;;;4.83;2.30;;;;;;;13.45;100.00;98829.94;4922070;29;20267;-55
2022/09/04 05:10:58;;;;;;;2.90;2.40;;;;;;;13.42;100.00;98833.75;4918416;29;20238;-52
2022/09/04 05:13:34;;;;;;;5.57;2.70;;;;;;;13.43;100.00;98837.16;4922030;28;20784;-53
2022/09/04 05:16:08;;;;;;;3.93;2.67;;;;;;;13.48;100.00;98844.56;4923312;29;20244;-55
2022/09/04 05:18:42;;;;;;;2.63;2.43;;;;;;;13.51;100.00;98844.22;4920449;28;20723;-54
2022/09/04 05:21:19;;;;;;;3.20;2.40;;;;;;;13.55;100.00;98848.97;4924141;29;20711;-56
2022/09/04 05:23:54;;;;;;;2.87;2.60;;;;;;;13.60;100.00;98852.91;4920032;28;20234;-53
2022/09/04 05:26:30;;;;;;;4.97;2.70;;;;;;;13.63;100.00;98857.81;4917350;29;20322;-54
2022/09/04 05:29:05;;;;;;;4.43;2.37;;;;;;;13.64;100.00;98860.28;4920729;29;20236;-55
2022/09/04 05:31:42;;;;;;;5.30;2.70;;;;;;;13.71;100.00;98863.91;4918491;28;20236;-54
2022/09/04 05:34:18;;;;;;;2.73;2.40;;;;;;;13.77;100.00;98864.22;4921402;29;20241;-52
2022/09/04 05:36:54;;;;;;;3.03;2.27;;;;;;;13.77;100.00;98867.66;4918421;28;20240;-54
2022/09/04 05:39:29;;;;;;;5.73;2.43;;;;;;;13.79;100.00;98870.91;4918060;28;20246;-54
2022/09/04 05:42:15;;;;;;;4.07;2.20;;;;;;;13.80;100.00;98880.44;4924300;29;20721;-54
2022/09/04 05:44:57;;;;;;;3.73;2.10;;;;;;;13.88;100.00;98872.56;4919480;28;20224;-52
2022/09/04 05:47:38;;;;;;;5.10;2.37;;;;;;;13.88;100.00;98885.69;4915780;28;20235;-53
2022/09/04 05:50:26;;;;;;;4.67;2.37;;;;;;;13.91;100.00;98889.75;4920912;28;20263;-53
2022/09/04 05:53:38;;;;;;;2.80;2.23;;;;;;;13.92;100.00;98888.78;4919845;28;20240;-53
2022/09/04 05:56:43;;;;;;;2.43;2.20;;;;;;;13.96;100.00;98886.66;4863053;29;20294;-53
2022/09/04 05:59:37;;;;;;;3.47;2.40;;;;;;;14.02;100.00;98883.38;4863349;29;20728;-52
2022/09/04 06:02:30;;;;;;;4.07;2.73;;;;;;;14.06;100.00;98889.09;4916407;29;20241;-52
2022/09/04 06:05:22;;;;;;;3.37;2.57;;;;;;;14.10;100.00;98900.88;4918843;28;20244;-54
2022/09/04 06:07:57;;;;;;;3.67;2.67;;;;;;;14.15;100.00;98898.59;4917338;28;20244;-55
2022/09/04 06:10:33;;;;;;;5.03;2.60;;;;;;;14.18;100.00;98900.88;4920997;29;20228;-55
2022/09/04 06:13:37;;;;;;;3.17;2.33;;;;;;;14.22;100.00;98904.81;4919804;28;20255;-56
2022/09/04 06:16:26;;;;;;;5.23;2.37;;;;;;;14.30;100.00;98911.88;4921381;28;20236;-56
2022/09/04 06:19:11;;;;;;;5.80;2.70;;;;;;;14.39;100.00;98912.66;4917065;29;20235;-56
2022/09/04 06:22:08;;;;;;;2.30;2.10;;;;;;;14.38;100.00;98918.88;4917048;29;20258;-56
2022/09/04 06:24:50;;;;;;;2.73;2.43;;;;;;;14.41;100.00;98919.34;4917596;28;20263;-53
2022/09/04 06:27:28;;;;;;;2.90;2.47;;;;;;;14.45;100.00;98911.97;4920099;28;20243;-52
2022/09/04 06:30:08;;;;;;;3.80;2.50;;;;;;;14.52;100.00;98914.72;4920115;29;20249;-54
2022/09/04 06:33:07;;;;;;;2.63;2.40;;;;;;;14.56;100.00;98922.13;4918088;29;20239;-55
2022/09/04 06:36:00;;;;;;;2.97;2.20;;;;;;;14.63;100.00;98919.63;4920237;28;20238;-52
2022/09/04 06:38:39;;;;;;;5.73;2.70;;;;;;;14.72;100.00;98918.63;4917416;28;20229;-52
2022/09/04 06:41:25;;;;;;;3.07;2.07;;;;;;;14.79;100.00;98926.69;4921217;28;20236;-56
2022/09/04 06:43:58;;;;;;;4.00;2.20;;;;;;;14.85;100.00;98920.69;4919490;28;20239;-54
2022/09/04 06:46:33;;;;;;;4.77;2.70;;;;;;;14.93;100.00;98930.38;4918170;29;20233;-54
2022/09/04 06:49:09;;;;;;;3.10;2.30;;;;;;;15.02;100.00;98934.59;4919275;29;20228;-53
2022/09/04 06:51:58;;;;;;;4.13;2.97;;;;;;;15.14;100.00;98932.41;4919067;28;20977;-52
2022/09/04 06:54:41;;;;;;;2.13;1.80;;;;;;;15.30;100.00;98936.75;4915560;28;20236;-56
2022/09/04 06:57:28;;;;;;;2.43;2.00;;;;;;;15.42;100.00;98934.53;4918192;29;20582;-53
2022/09/04 07:00:05;;;;;;;4.73;2.10;;;;;;;15.50;100.00;98938.91;4918825;28;20227;-54
2022/09/04 07:02:56;;;;;;;2.23;2.00;;;;;;;15.63;100.00;98948.88;4916329;28;20236;-53
2022/09/04 07:05:31;;;;;;;2.20;2.00;;;;;;;15.74;100.00;98945.84;4918033;28;20245;-55
2022/09/04 07:08:09;;;;;;;4.37;2.00;;;;;;;15.86;100.00;98956.75;4922076;29;20242;-54
2022/09/04 07:10:42;;;;;;;2.60;1.73;;;;;;;16.03;100.00;98959.28;4918777;28;20239;-52
2022/09/04 07:13:28;;;;;;;2.07;1.87;;;;;;;16.17;100.00;98960.28;4920341;29;20746;-55
2022/09/04 07:16:09;;;;;;;2.63;1.80;;;;;;;16.35;100.00;98955.50;4915734;29;20239;-53
2022/09/04 07:18:50;;;;;;;2.07;1.80;;;;;;;16.51;100.00;98962.41;4917568;28;20238;-52
2022/09/04 07:21:24;;;;;;;3.00;1.90;;;;;;;16.70;100.00;98969.97;4920076;28;20233;-56
2022/09/04 07:24:01;;;;;;;2.73;2.40;;;;;;;16.87;100.00;98966.16;4919200;28;20670;-55
2022/09/04 07:26:37;;;;;;;2.07;1.70;;;;;;;17.01;100.00;98972.44;4917062;28;20260;-56
2022/09/04 07:29:29;;;;;;;2.17;1.97;;;;;;;17.17;100.00;98981.94;4918234;28;20243;-54
2022/09/04 07:32:03;;;;;;;2.30;1.57;;;;;;;17.33;100.00;98990.66;4916776;28;20239;-52
2022/09/04 07:34:41;;;;;;;3.67;2.70;;;;;;;17.51;100.00;98974.38;4915362;29;20244;-51
2022/09/04 07:37:21;;;;;;;4.57;2.50;;;;;;;17.66;100.00;98982.28;4921958;28;20248;-51
2022/09/04 07:39:55;;;;;;;3.57;2.17;;;;;;;17.76;98.62;98982.78;4915961;29;20662;-54
2022/09/04 07:42:28;;;;;;;4.20;2.50;;;;;;;17.85;97.36;98984.28;4915866;29;20574;-52
2022/09/04 07:45:04;;;;;;;3.10;2.80;;;;;;;17.99;96.93;98993.16;4921681;28;20245;-52
2022/09/04 07:47:41;;;;;;;3.87;2.87;;;;;;;18.13;94.71;98991.44;4915025;28;20233;-54
2022/09/04 07:50:13;;;;;;;3.60;2.90;;;;;;;18.21;94.08;98994.94;4919458;29;20236;-54
2022/09/04 07:53:03;;;;;;;5.27;3.10;;;;;;;18.36;92.84;98994.88;4915874;28;20745;-54
2022/09/04 07:55:37;;;;;;;3.73;2.70;;;;;;;18.43;92.43;99007.13;4915090;28;20227;-54
2022/09/04 07:58:27;;;;;;;5.10;2.87;;;;;;;18.53;91.72;99004.16;4920620;29;20230;-54
2022/09/04 08:01:13;;;;;;;6.47;3.20;;;;;;;18.65;91.57;99014.16;4916878;29;20259;-54
2022/09/04 08:04:05;;;;;;;4.53;3.40;;;;;;;18.71;90.23;99016.88;4914846;28;20255;-55
2022/09/04 08:06:40;;;;;;;4.40;3.77;;;;;;;18.81;90.11;99013.06;4917839;28;20223;-51
2022/09/04 08:09:34;;;;;;;5.80;3.40;;;;;;;18.90;88.29;99019.81;4919609;29;20241;-53
2022/09/04 08:12:43;;;;;;;5.80;3.70;;;;;;;18.86;88.78;99023.88;4919203;28;20244;-53
2022/09/04 08:15:18;;;;;;;6.43;3.40;;;;;;;18.99;87.34;99025.78;4903250;28;20245;-58
2022/09/04 08:18:20;;;;;;;4.60;3.60;;;;;;;19.10;86.97;99032.34;4918323;28;20868;-53
2022/09/04 08:20:55;;;;;;;6.57;3.93;;;;;;;19.22;85.62;99035.25;4916610;28;20242;-51
2022/09/04 08:23:41;;;;;;;3.67;3.07;;;;;;;19.27;85.75;99036.28;4919555;28;20715;-53
2022/09/04 08:26:16;;;;;;;3.97;3.03;;;;;;;19.32;85.72;99035.72;4918018;29;20324;-51
2022/09/04 08:29:03;;;;;;;4.77;2.90;;;;;;;19.42;83.12;99037.97;4916486;29;20234;-55
2022/09/04 08:31:36;;;;;;;3.60;2.60;;;;;;;19.56;83.64;99034.34;4915857;28;20236;-53
2022/09/04 08:34:19;;;;;;;2.93;2.43;;;;;;;19.58;80.99;99036.81;4922016;28;20236;-53
2022/09/04 08:36:52;;;;;;;4.40;2.43;;;;;;;19.70;81.66;99037.03;4921209;29;20713;-51
2022/09/04 08:39:28;;;;;;;3.40;2.40;;;;;;;19.74;81.03;99035.63;4921278;29;20251;-59
2022/09/04 08:42:26;;;;;;;3.07;2.60;;;;;;;19.82;80.91;99046.03;4921623;28;20596;-51
2022/09/04 08:45:26;;;;;;;5.57;2.33;;;;;;;19.85;80.68;99040.34;4920538;28;20256;-54
2022/09/04 08:48:29;;;;;;;4.70;2.30;;;;;;;19.96;80.24;99046.09;4921550;29;20328;-53
2022/09/04 08:51:28;;;;;;;2.73;2.20;;;;;;;19.99;80.29;99041.19;4914022;28;20248;-51
2022/09/04 08:54:16;;;;;;;2.47;2.27;;;;;;;20.07;79.18;99048.13;4936286;28;20324;-54
2022/09/04 08:56:49;;;;;;;4.40;2.03;;;;;;;20.13;79.53;99054.44;4915132;28;20241;-53
2022/09/04 08:59:54;;;;;;;3.07;2.40;;;;;;;20.24;78.16;99053.84;4920282;28;20721;-52
2022/09/04 09:03:08;;;;;;;2.33;2.13;;;;;;;20.28;77.17;99051.59;4897545;28;20243;-53
2022/09/04 09:06:10;;;;;;;4.13;2.20;;;;;;;20.37;76.03;99054.88;4841790;29;20261;-55
2022/09/04 09:09:16;;;;;;;2.93;2.10;;;;;;;20.43;76.04;99054.06;4911751;29;20234;-55
2022/09/04 09:12:17;;;;;;;3.57;2.00;;;;;;;20.49;75.44;99048.75;4919653;29;20251;-55
2022/09/04 09:15:14;;;;;;;2.57;2.17;;;;;;;20.63;75.58;99051.38;4921585;29;20331;-52
2022/09/04 09:17:59;;;;;;;2.80;2.03;;;;;;;20.62;75.45;99053.22;4893639;28;20232;-54
2022/09/04 09:20:31;;;;;;;3.13;2.20;;;;;;;20.86;74.84;99052.81;4919497;29;20236;-54
2022/09/04 09:23:22;;;;;;;1.87;1.43;;;;;;;20.92;73.18;99050.13;4921814;28;20756;-54
2022/09/04 09:25:52;;;;;;;2.47;2.00;;;;;;;20.90;72.14;99052.16;4919601;28;20314;-52
2022/09/04 09:29:00;;;;;;;3.93;1.53;;;;;;;21.01;69.49;99050.72;4923739;28;20229;-55
2022/09/04 09:31:52;;;;;;;3.70;1.53;;;;;;;21.01;67.65;99049.91;4905952;28;20240;-53
2022/09/04 09:35:01;;;;;;;3.60;2.00;;;;;;;21.03;71.12;99042.53;4922394;28;20236;-54
2022/09/04 09:38:01;;;;;;;2.23;2.00;;;;;;;21.18;70.87;99048.41;4917298;28;20237;-53
2022/09/04 09:40:52;;;;;;;3.17;1.90;;;;;;;21.28;70.08;99047.97;4896800;29;20303;-52
2022/09/04 09:43:41;;;;;;;5.37;2.60;;;;;;;21.45;70.15;99047.47;4917905;28;20236;-53
2022/09/04 09:46:31;;;;;;;3.37;1.80;;;;;;;21.44;70.23;99045.84;4919219;28;20240;-52
2022/09/04 09:49:19;;;;;;;3.97;1.70;;;;;;;21.58;67.20;99047.41;4917590;28;20243;-54
2022/09/04 09:52:25;;;;;;;3.80;1.90;;;;;;;21.71;66.75;99045.75;4919405;28;20735;-52
2022/09/04 09:55:29;;;;;;;4.73;1.70;;;;;;;21.64;66.67;99041.28;4916922;28;20241;-53
2022/09/04 09:58:25;;;;;;;2.50;1.87;;;;;;;21.71;65.83;99035.94;4914216;29;20601;-53
2022/09/04 10:01:04;;;;;;;2.30;1.50;;;;;;;21.85;63.66;99038.50;4917512;28;20251;-52
2022/09/04 10:03:50;;;;;;;2.73;1.77;;;;;;;21.93;62.96;99035.59;4914535;28;20306;-55
2022/09/04 10:06:39;;;;;;;4.10;1.80;;;;;;;21.98;63.10;99043.72;4922169;28;20246;-54
2022/09/04 10:09:30;;;;;;;3.13;1.40;;;;;;;22.12;63.71;99039.16;4908533;29;20245;-53
2022/09/04 10:12:33;;;;;;;3.10;1.87;;;;;;;22.22;63.82;99039.47;4918749;28;20715;-55
2022/09/04 10:15:22;;;;;;;2.47;1.70;;;;;;;22.34;61.04;99034.25;4918543;28;20247;-55
2022/09/04 10:18:14;;;;;;;3.07;1.70;;;;;;;22.44;60.39;99039.09;4916507;29;21030;-51
2022/09/04 10:21:09;;;;;;;2.37;1.57;;;;;;;22.44;59.44;99036.44;4916905;28;20255;-54
2022/09/04 10:24:11;;;;;;;1.80;1.50;;;;;;;22.39;60.99;99033.59;4917026;29;20666;-52
2022/09/04 10:27:04;;;;;;;3.27;1.60;;;;;;;22.39;61.07;99026.44;4894345;29;20259;-52
2022/09/04 10:29:44;;;;;;;3.43;1.37;;;;;;;22.47;58.72;99020.03;4919110;28;20221;-54
2022/09/04 10:32:35;;;;;;;1.67;1.30;;;;;;;22.58;58.71;99021.19;4917564;28;20318;-54
2022/09/04 10:35:24;;;;;;;2.30;1.50;;;;;;;22.80;57.22;99026.06;4915801;28;20317;-53
2022/09/04 10:38:08;;;;;;;2.93;1.40;;;;;;;22.76;56.07;99027.56;4918418;29;20242;-53
2022/09/04 10:40:47;;;;;;;1.17;1.07;;;;;;;22.90;52.22;99028.22;4917922;28;20244;-52
2022/09/04 10:43:36;;;;;;;2.97;1.67;;;;;;;22.98;52.15;99031.38;4918926;29;20245;-55
2022/09/04 10:46:10;;;;;;;3.37;1.30;;;;;;;23.21;51.87;99031.75;4915609;29;20234;-53
2022/09/04 10:48:56;;;;;;;1.73;1.20;;;;;;;23.33;52.84;99027.31;4915244;28;20238;-54
2022/09/04 10:51:53;;;;;;;1.33;1.20;;;;;;;23.58;53.58;99034.38;4916735;29;20247;-54
2022/09/04 10:55:01;;;;;;;2.60;1.40;;;;;;;23.68;48.68;99034.63;4914555;28;20229;-54
2022/09/04 10:57:44;;;;;;;1.73;1.07;;;;;;;23.44;50.50;99029.22;4840443;29;20343;-52
2022/09/04 11:00:14;;;;;;;2.30;1.40;;;;;;;23.55;50.56;99030.31;4845622;29;20285;-55
2022/09/04 11:03:23;;;;;;;3.13;1.00;;;;;;;23.48;49.00;99034.91;4888683;29;20591;-55
2022/09/04 11:06:10;;;;;;;2.10;1.07;;;;;;;23.41;49.40;99032.31;4919877;29;20237;-52
2022/09/04 11:08:57;;;;;;;1.77;1.13;;;;;;;23.56;50.54;99028.44;4914633;28;20227;-55
2022/09/04 11:11:45;;;;;;;4.17;1.40;;;;;;;23.69;49.26;99027.47;4918333;28;20253;-51
2022/09/04 11:14:34;;;;;;;1.33;1.10;;;;;;;23.68;48.71;99029.31;4920287;29;20230;-52
2022/09/04 11:17:39;;;;;;;6.43;1.43;;;;;;;23.74;49.92;99027.59;4919179;28;20246;-53
2022/09/04 11:20:48;;;;;;;3.00;1.20;;;;;;;23.90;50.15;99018.13;4917018;28;20238;-53
2022/09/04 11:23:49;;;;;;;1.77;1.20;;;;;;;23.94;48.46;99023.78;4890560;29;20314;-52
2022/09/04 11:26:46;;;;;;;2.13;1.10;;;;;;;23.98;47.98;99019.63;4917399;28;20236;-54
2022/09/04 11:29:41;;;;;;;1.57;1.10;;;;;;;24.01;47.83;99028.03;4917778;28;20289;-54
2022/09/04 11:32:30;;;;;;;1.40;1.03;;;;;;;24.09;47.29;99016.19;4913450;28;20317;-55
2022/09/04 11:35:31;;;;;;;3.97;1.17;;;;;;;24.10;48.90;99012.50;4915698;28;20244;-54
2022/09/04 11:38:07;;;;;;;3.47;1.20;;;;;;;24.31;48.95;99016.47;4914324;28;20248;-52
2022/09/04 11:41:08;;;;;;;1.80;1.10;;;;;;;24.53;48.50;99013.19;4918182;28;20233;-57
2022/09/04 11:44:06;;;;;;;2.87;1.07;;;;;;;24.58;44.89;99017.84;4914515;28;20226;-52
2022/09/04 11:47:00;;;;;;;1.93;0.80;;;;;;;24.85;43.17;99026.19;4914765;29;20255;-53
2022/09/04 11:49:43;;;;;;;1.83;1.00;;;;;;;24.82;43.09;99018.66;4914067;28;20244;-55
2022/09/04 11:52:38;;;;;;;1.60;1.03;;;;;;;24.97;42.46;99022.69;4919398;28;20328;-52
2022/09/04 11:55:23;;;;;;;2.80;1.20;;;;;;;25.22;41.87;99021.59;4916286;29;20427;-55
2022/09/04 11:58:10;;;;;;;4.97;1.10;;;;;;;25.06;42.41;99021.28;4920378;28;20245;-54
2022/09/04 12:00:48;;;;;;;2.43;1.07;;;;;;;24.95;42.96;99019.44;4914632;28;20717;-51
2022/09/04 12:03:48;;;;;;;1.93;1.00;;;;;;;24.99;42.90;99024.06;4918549;28;20257;-55
2022/09/04 12:06:33;;;;;;;1.63;1.13;;;;;;;25.18;41.34;99022.06;4921123;29;20770;-53
2022/09/04 12:09:43;;;;;;;1.10;1.00;;;;;;;25.06;40.39;99026.63;4920521;28;20836;-55
2022/09/04 12:12:28;;;;;;;1.57;1.10;;;;;;;25.14;40.85;99022.75;4921126;28;20667;-59
2022/09/04 12:15:21;;;;;;;2.87;1.30;;;;;;;25.16;42.61;99023.31;4924039;28;20241;-55
2022/09/04 12:18:14;;;;;;;2.13;1.27;;;;;;;25.40;42.56;99024.06;4918425;28;20329;-56
2022/09/04 12:21:05;;;;;;;2.20;0.90;;;;;;;25.57;42.65;99025.97;4921102;28;20235;-55
2022/09/04 12:23:40;;;;;;;1.20;0.80;;;;;;;25.70;42.21;99030.25;4918123;29;21676;-55
2022/09/04 12:26:46;;;;;;;2.00;1.10;;;;;;;25.48;41.85;99025.56;4922604;29;20249;-60
2022/09/04 12:29:37;;;;;;;1.17;1.07;;;;;;;25.67;41.04;99030.72;4884283;29;20991;-54
2022/09/04 12:32:25;;;;;;;2.13;1.40;;;;;;;25.57;40.08;99024.13;4919038;29;20320;-55
2022/09/04 12:35:08;;;;;;;6.33;1.70;;;;;;;25.47;40.69;99031.97;4918288;29;20690;-51
2022/09/04 12:38:10;;;;;;;1.80;1.30;;;;;;;25.26;40.98;99018.19;4920727;28;20301;-54
2022/09/04 12:40:46;;;;;;;1.50;1.00;;;;;;;25.50;41.61;99021.59;4918533;28;20233;-54
2022/09/04 12:43:24;;;;;;;1.73;1.10;;;;;;;25.57;40.79;99023.31;4923499;29;20579;-53
2022/09/04 12:46:23;;;;;;;2.83;1.10;;;;;;;25.59;40.87;99022.03;4917469;29;20671;-55
2022/09/04 12:49:05;;;;;;;6.20;1.50;;;;;;;25.68;40.35;99029.66;4933246;28;20295;-53